sensor_id;sensor_type;location;lat;lon;timestamp;P1;durP1;ratioP1;P2;durP2;ratioP2
8048;SDS011;20935;42.660;23.342;2023-12-20T00:00:29;57.67;;;35.80;;
8048;SDS011;20935;42.660;23.342;2023-12-20T00:03:16;52.17;;;31.63;;
8048;SDS011;20935;42.660;23.342;2023-12-20T00:06:03;58.73;;;37.37;;
8048;SDS011;20935;42.660;23.342;2023-12-20T00:08:50;53.60;;;35.27;;
8048;SDS011;20935;42.660;23.342;2023-12-20T00:11:38;57.23;;;34.13;;
8048;SDS011;20935;42.660;23.342;2023-12-20T00:14:27;61.93;;;40.00;;
8048;SDS011;20935;42.660;23.342;2023-12-20T00:17:14;55.20;;;35.57;;
8048;SDS011;20935;42.660;23.342;2023-12-20T00:20:01;54.80;;;35.00;;
8048;SDS011;20935;42.660;23.342;2023-12-20T00:22:48;51.10;;;32.50;;
8048;SDS011;20935;42.660;23.342;2023-12-20T00:25:34;57.97;;;36.00;;
8048;SDS011;20935;42.660;23.342;2023-12-20T00:28:23;55.57;;;37.10;;
8048;SDS011;20935;42.660;23.342;2023-12-20T00:31:09;53.90;;;33.60;;
8048;SDS011;20935;42.660;23.342;2023-12-20T00:33:56;53.57;;;33.87;;
8048;SDS011;20935;42.660;23.342;2023-12-20T00:36:43;58.80;;;35.80;;
8048;SDS011;20935;42.660;23.342;2023-12-20T00:39:30;52.23;;;34.50;;
8048;SDS011;20935;42.660;23.342;2023-12-20T00:42:18;58.20;;;37.30;;
8048;SDS011;20935;42.660;23.342;2023-12-20T00:45:07;60.67;;;38.30;;
8048;SDS011;20935;42.660;23.342;2023-12-20T00:47:53;54.63;;;36.40;;
8048;SDS011;20935;42.660;23.342;2023-12-20T00:50:40;50.03;;;33.97;;
8048;SDS011;20935;42.660;23.342;2023-12-20T00:53:27;58.27;;;35.67;;
8048;SDS011;20935;42.660;23.342;2023-12-20T00:56:14;53.90;;;36.63;;
8048;SDS011;20935;42.660;23.342;2023-12-20T00:59:00;52.53;;;35.40;;
8048;SDS011;20935;42.660;23.342;2023-12-20T01:01:48;51.53;;;36.83;;
8048;SDS011;20935;42.660;23.342;2023-12-20T01:04:36;59.23;;;38.53;;
8048;SDS011;20935;42.660;23.342;2023-12-20T01:07:22;60.17;;;39.10;;
8048;SDS011;20935;42.660;23.342;2023-12-20T01:10:09;60.10;;;37.63;;
8048;SDS011;20935;42.660;23.342;2023-12-20T01:12:56;59.70;;;38.93;;
8048;SDS011;20935;42.660;23.342;2023-12-20T01:15:43;62.33;;;37.33;;
8048;SDS011;20935;42.660;23.342;2023-12-20T01:18:31;54.17;;;35.60;;
8048;SDS011;20935;42.660;23.342;2023-12-20T01:21:18;58.27;;;35.07;;
8048;SDS011;20935;42.660;23.342;2023-12-20T01:24:05;53.10;;;37.73;;
8048;SDS011;20935;42.660;23.342;2023-12-20T01:26:52;58.57;;;37.63;;
8048;SDS011;20935;42.660;23.342;2023-12-20T01:29:38;53.60;;;36.90;;
8048;SDS011;20935;42.660;23.342;2023-12-20T01:32:25;53.57;;;36.90;;
8048;SDS011;20935;42.660;23.342;2023-12-20T01:35:13;56.53;;;37.73;;
8048;SDS011;20935;42.660;23.342;2023-12-20T01:38:00;56.37;;;37.73;;
8048;SDS011;20935;42.660;23.342;2023-12-20T01:40:47;60.30;;;39.53;;
8048;SDS011;20935;42.660;23.342;2023-12-20T01:43:34;61.87;;;39.47;;
8048;SDS011;20935;42.660;23.342;2023-12-20T01:46:21;59.30;;;39.03;;
8048;SDS011;20935;42.660;23.342;2023-12-20T01:49:08;60.30;;;38.60;;
8048;SDS011;20935;42.660;23.342;2023-12-20T01:51:56;61.87;;;39.37;;
8048;SDS011;20935;42.660;23.342;2023-12-20T01:54:43;59.07;;;39.03;;
8048;SDS011;20935;42.660;23.342;2023-12-20T01:57:30;63.03;;;38.97;;
8048;SDS011;20935;42.660;23.342;2023-12-20T02:00:17;65.20;;;40.93;;
8048;SDS011;20935;42.660;23.342;2023-12-20T02:03:06;61.30;;;39.43;;
8048;SDS011;20935;42.660;23.342;2023-12-20T02:05:53;61.93;;;38.33;;
8048;SDS011;20935;42.660;23.342;2023-12-20T02:08:41;60.03;;;39.03;;
8048;SDS011;20935;42.660;23.342;2023-12-20T02:11:28;61.47;;;38.30;;
8048;SDS011;20935;42.660;23.342;2023-12-20T02:14:15;60.17;;;39.37;;
8048;SDS011;20935;42.660;23.342;2023-12-20T02:17:02;60.33;;;38.23;;
8048;SDS011;20935;42.660;23.342;2023-12-20T02:19:49;62.20;;;38.67;;
8048;SDS011;20935;42.660;23.342;2023-12-20T02:22:37;60.87;;;36.33;;
8048;SDS011;20935;42.660;23.342;2023-12-20T02:25:24;54.30;;;36.37;;
8048;SDS011;20935;42.660;23.342;2023-12-20T02:28:10;58.60;;;36.87;;
8048;SDS011;20935;42.660;23.342;2023-12-20T02:30:57;53.60;;;37.50;;
8048;SDS011;20935;42.660;23.342;2023-12-20T02:33:44;59.73;;;37.37;;
8048;SDS011;20935;42.660;23.342;2023-12-20T02:36:31;54.23;;;34.73;;
8048;SDS011;20935;42.660;23.342;2023-12-20T02:39:19;57.03;;;37.07;;
8048;SDS011;20935;42.660;23.342;2023-12-20T02:42:06;54.07;;;33.23;;
8048;SDS011;20935;42.660;23.342;2023-12-20T02:44:52;54.13;;;34.20;;
8048;SDS011;20935;42.660;23.342;2023-12-20T02:47:39;53.87;;;36.30;;
8048;SDS011;20935;42.660;23.342;2023-12-20T02:50:26;53.33;;;33.87;;
8048;SDS011;20935;42.660;23.342;2023-12-20T02:53:13;55.57;;;34.90;;
8048;SDS011;20935;42.660;23.342;2023-12-20T02:56:01;54.87;;;35.30;;
8048;SDS011;20935;42.660;23.342;2023-12-20T02:58:48;59.40;;;37.07;;
8048;SDS011;20935;42.660;23.342;2023-12-20T03:01:34;52.90;;;35.53;;
8048;SDS011;20935;42.660;23.342;2023-12-20T03:04:21;61.40;;;38.93;;
8048;SDS011;20935;42.660;23.342;2023-12-20T03:07:08;62.97;;;38.17;;
8048;SDS011;20935;42.660;23.342;2023-12-20T03:09:55;52.10;;;35.47;;
8048;SDS011;20935;42.660;23.342;2023-12-20T03:12:43;44.93;;;32.73;;
8048;SDS011;20935;42.660;23.342;2023-12-20T03:15:30;82.33;;;47.73;;
8048;SDS011;20935;42.660;23.342;2023-12-20T03:18:17;84.30;;;49.57;;
8048;SDS011;20935;42.660;23.342;2023-12-20T03:21:04;80.37;;;52.53;;
8048;SDS011;20935;42.660;23.342;2023-12-20T03:23:50;74.40;;;46.30;;
8048;SDS011;20935;42.660;23.342;2023-12-20T03:26:37;100.73;;;60.47;;
8048;SDS011;20935;42.660;23.342;2023-12-20T03:29:29;104.23;;;64.63;;
8048;SDS011;20935;42.660;23.342;2023-12-20T03:32:16;122.87;;;71.47;;
8048;SDS011;20935;42.660;23.342;2023-12-20T03:35:03;109.17;;;62.70;;
8048;SDS011;20935;42.660;23.342;2023-12-20T03:37:49;92.60;;;58.40;;
8048;SDS011;20935;42.660;23.342;2023-12-20T03:40:36;107.90;;;65.17;;
8048;SDS011;20935;42.660;23.342;2023-12-20T03:43:23;123.13;;;76.03;;
8048;SDS011;20935;42.660;23.342;2023-12-20T03:46:11;125.97;;;76.73;;
8048;SDS011;20935;42.660;23.342;2023-12-20T03:48:58;90.77;;;57.30;;
8048;SDS011;20935;42.660;23.342;2023-12-20T03:51:45;107.40;;;64.13;;
8048;SDS011;20935;42.660;23.342;2023-12-20T03:54:31;86.17;;;53.83;;
8048;SDS011;20935;42.660;23.342;2023-12-20T03:57:18;83.20;;;52.70;;
8048;SDS011;20935;42.660;23.342;2023-12-20T04:00:06;79.67;;;50.47;;
8048;SDS011;20935;42.660;23.342;2023-12-20T04:02:57;88.17;;;53.23;;
8048;SDS011;20935;42.660;23.342;2023-12-20T04:05:44;78.50;;;46.47;;
8048;SDS011;20935;42.660;23.342;2023-12-20T04:08:30;79.63;;;48.60;;
8048;SDS011;20935;42.660;23.342;2023-12-20T04:11:17;84.70;;;52.53;;
8048;SDS011;20935;42.660;23.342;2023-12-20T04:14:04;109.17;;;63.37;;
8048;SDS011;20935;42.660;23.342;2023-12-20T04:16:52;92.43;;;59.37;;
8048;SDS011;20935;42.660;23.342;2023-12-20T04:19:40;96.83;;;57.97;;
8048;SDS011;20935;42.660;23.342;2023-12-20T04:22:27;107.43;;;64.97;;
8048;SDS011;20935;42.660;23.342;2023-12-20T04:25:14;98.97;;;58.27;;
8048;SDS011;20935;42.660;23.342;2023-12-20T04:28:01;89.90;;;53.43;;
8048;SDS011;20935;42.660;23.342;2023-12-20T04:30:48;87.90;;;52.23;;
8048;SDS011;20935;42.660;23.342;2023-12-20T04:33:35;89.97;;;54.37;;
8048;SDS011;20935;42.660;23.342;2023-12-20T04:36:23;89.77;;;55.57;;
8048;SDS011;20935;42.660;23.342;2023-12-20T04:39:12;97.73;;;57.73;;
8048;SDS011;20935;42.660;23.342;2023-12-20T04:42:00;88.77;;;54.70;;
8048;SDS011;20935;42.660;23.342;2023-12-20T04:44:47;85.80;;;56.03;;
8048;SDS011;20935;42.660;23.342;2023-12-20T04:47:36;91.10;;;58.17;;
8048;SDS011;20935;42.660;23.342;2023-12-20T04:50:23;97.07;;;59.37;;
8048;SDS011;20935;42.660;23.342;2023-12-20T04:53:11;99.60;;;57.77;;
8048;SDS011;20935;42.660;23.342;2023-12-20T04:55:58;86.00;;;53.53;;
8048;SDS011;20935;42.660;23.342;2023-12-20T04:58:45;88.10;;;54.53;;
8048;SDS011;20935;42.660;23.342;2023-12-20T05:01:32;94.00;;;56.83;;
8048;SDS011;20935;42.660;23.342;2023-12-20T05:04:19;93.37;;;58.10;;
8048;SDS011;20935;42.660;23.342;2023-12-20T05:07:06;93.73;;;58.17;;
8048;SDS011;20935;42.660;23.342;2023-12-20T05:09:54;92.87;;;56.87;;
8048;SDS011;20935;42.660;23.342;2023-12-20T05:12:41;101.53;;;60.63;;
8048;SDS011;20935;42.660;23.342;2023-12-20T05:15:28;97.87;;;59.37;;
8048;SDS011;20935;42.660;23.342;2023-12-20T05:18:15;100.33;;;60.07;;
8048;SDS011;20935;42.660;23.342;2023-12-20T05:21:01;96.13;;;59.57;;
8048;SDS011;20935;42.660;23.342;2023-12-20T05:23:48;92.10;;;53.80;;
8048;SDS011;20935;42.660;23.342;2023-12-20T05:26:36;92.33;;;57.47;;
8048;SDS011;20935;42.660;23.342;2023-12-20T05:29:23;85.63;;;55.43;;
8048;SDS011;20935;42.660;23.342;2023-12-20T05:32:10;92.97;;;60.03;;
8048;SDS011;20935;42.660;23.342;2023-12-20T05:34:57;90.67;;;56.53;;
8048;SDS011;20935;42.660;23.342;2023-12-20T05:37:44;85.30;;;53.20;;
8048;SDS011;20935;42.660;23.342;2023-12-20T05:40:31;89.73;;;54.60;;
8048;SDS011;20935;42.660;23.342;2023-12-20T05:43:19;98.03;;;53.47;;
8048;SDS011;20935;42.660;23.342;2023-12-20T05:46:05;96.27;;;55.10;;
8048;SDS011;20935;42.660;23.342;2023-12-20T05:48:52;97.10;;;54.67;;
8048;SDS011;20935;42.660;23.342;2023-12-20T05:51:39;106.63;;;56.40;;
8048;SDS011;20935;42.660;23.342;2023-12-20T05:54:26;82.37;;;52.13;;
8048;SDS011;20935;42.660;23.342;2023-12-20T05:57:13;108.33;;;54.73;;
8048;SDS011;20935;42.660;23.342;2023-12-20T06:00:01;88.97;;;50.03;;
8048;SDS011;20935;42.660;23.342;2023-12-20T06:02:49;92.43;;;52.97;;
8048;SDS011;20935;42.660;23.342;2023-12-20T06:05:35;97.30;;;56.00;;
8048;SDS011;20935;42.660;23.342;2023-12-20T06:08:22;90.33;;;54.33;;
8048;SDS011;20935;42.660;23.342;2023-12-20T06:11:09;87.53;;;51.50;;
8048;SDS011;20935;42.660;23.342;2023-12-20T06:13:56;87.93;;;51.87;;
8048;SDS011;20935;42.660;23.342;2023-12-20T06:16:44;114.40;;;54.97;;
8048;SDS011;20935;42.660;23.342;2023-12-20T06:19:31;95.37;;;52.33;;
8048;SDS011;20935;42.660;23.342;2023-12-20T06:22:18;94.90;;;53.43;;
8048;SDS011;20935;42.660;23.342;2023-12-20T06:25:05;123.50;;;54.83;;
8048;SDS011;20935;42.660;23.342;2023-12-20T06:27:52;92.33;;;50.00;;
8048;SDS011;20935;42.660;23.342;2023-12-20T06:30:39;88.03;;;51.87;;
8048;SDS011;20935;42.660;23.342;2023-12-20T06:33:27;91.43;;;50.60;;
8048;SDS011;20935;42.660;23.342;2023-12-20T06:36:14;91.27;;;51.77;;
8048;SDS011;20935;42.660;23.342;2023-12-20T06:39:01;93.23;;;53.03;;
8048;SDS011;20935;42.660;23.342;2023-12-20T06:41:50;89.63;;;50.67;;
8048;SDS011;20935;42.660;23.342;2023-12-20T06:44:36;82.57;;;49.13;;
8048;SDS011;20935;42.660;23.342;2023-12-20T06:47:24;89.07;;;49.67;;
8048;SDS011;20935;42.660;23.342;2023-12-20T06:50:13;81.90;;;51.77;;
8048;SDS011;20935;42.660;23.342;2023-12-20T06:53:00;80.60;;;49.77;;
8048;SDS011;20935;42.660;23.342;2023-12-20T06:55:52;74.37;;;47.07;;
8048;SDS011;20935;42.660;23.342;2023-12-20T06:58:39;79.40;;;50.03;;
8048;SDS011;20935;42.660;23.342;2023-12-20T07:01:25;80.57;;;50.67;;
8048;SDS011;20935;42.660;23.342;2023-12-20T07:04:12;80.07;;;49.87;;
8048;SDS011;20935;42.660;23.342;2023-12-20T07:07:00;90.60;;;50.13;;
8048;SDS011;20935;42.660;23.342;2023-12-20T07:09:47;88.17;;;50.83;;
8048;SDS011;20935;42.660;23.342;2023-12-20T07:12:34;89.93;;;54.57;;
8048;SDS011;20935;42.660;23.342;2023-12-20T07:15:21;80.43;;;52.07;;
8048;SDS011;20935;42.660;23.342;2023-12-20T07:18:07;85.20;;;49.20;;
8048;SDS011;20935;42.660;23.342;2023-12-20T07:20:54;78.23;;;50.83;;
8048;SDS011;20935;42.660;23.342;2023-12-20T07:23:42;92.93;;;54.60;;
8048;SDS011;20935;42.660;23.342;2023-12-20T07:26:29;88.93;;;53.70;;
8048;SDS011;20935;42.660;23.342;2023-12-20T07:29:16;91.03;;;54.77;;
8048;SDS011;20935;42.660;23.342;2023-12-20T07:32:03;91.30;;;58.47;;
8048;SDS011;20935;42.660;23.342;2023-12-20T07:34:50;89.50;;;56.93;;
8048;SDS011;20935;42.660;23.342;2023-12-20T07:37:37;96.07;;;56.73;;
8048;SDS011;20935;42.660;23.342;2023-12-20T07:40:25;92.37;;;52.00;;
8048;SDS011;20935;42.660;23.342;2023-12-20T07:43:12;94.60;;;55.10;;
8048;SDS011;20935;42.660;23.342;2023-12-20T07:46:03;102.10;;;61.80;;
8048;SDS011;20935;42.660;23.342;2023-12-20T07:48:50;103.47;;;60.73;;
8048;SDS011;20935;42.660;23.342;2023-12-20T07:51:37;104.87;;;62.50;;
8048;SDS011;20935;42.660;23.342;2023-12-20T07:54:23;100.00;;;59.93;;
8048;SDS011;20935;42.660;23.342;2023-12-20T07:57:12;101.37;;;61.33;;
8048;SDS011;20935;42.660;23.342;2023-12-20T08:00:02;108.30;;;64.30;;
8048;SDS011;20935;42.660;23.342;2023-12-20T08:02:49;104.63;;;63.03;;
8048;SDS011;20935;42.660;23.342;2023-12-20T08:05:36;100.33;;;60.57;;
8048;SDS011;20935;42.660;23.342;2023-12-20T08:08:24;97.97;;;59.13;;
8048;SDS011;20935;42.660;23.342;2023-12-20T08:11:11;92.30;;;60.47;;
8048;SDS011;20935;42.660;23.342;2023-12-20T08:13:59;90.20;;;55.43;;
8048;SDS011;20935;42.660;23.342;2023-12-20T08:16:46;92.73;;;56.27;;
8048;SDS011;20935;42.660;23.342;2023-12-20T08:19:33;85.10;;;47.47;;
8048;SDS011;20935;42.660;23.342;2023-12-20T08:22:19;71.73;;;45.57;;
8048;SDS011;20935;42.660;23.342;2023-12-20T08:25:06;66.03;;;42.37;;
8048;SDS011;20935;42.660;23.342;2023-12-20T08:27:54;58.40;;;39.03;;
8048;SDS011;20935;42.660;23.342;2023-12-20T08:30:42;58.57;;;37.07;;
8048;SDS011;20935;42.660;23.342;2023-12-20T08:33:29;55.57;;;36.07;;
8048;SDS011;20935;42.660;23.342;2023-12-20T08:36:15;53.60;;;34.87;;
8048;SDS011;20935;42.660;23.342;2023-12-20T08:39:03;54.90;;;34.93;;
8048;SDS011;20935;42.660;23.342;2023-12-20T08:41:52;61.37;;;35.67;;
8048;SDS011;20935;42.660;23.342;2023-12-20T08:44:39;57.63;;;35.23;;
8048;SDS011;20935;42.660;23.342;2023-12-20T08:47:27;56.23;;;34.63;;
8048;SDS011;20935;42.660;23.342;2023-12-20T08:50:14;66.10;;;34.27;;
8048;SDS011;20935;42.660;23.342;2023-12-20T08:53:01;55.40;;;33.93;;
8048;SDS011;20935;42.660;23.342;2023-12-20T08:55:48;53.10;;;32.30;;
8048;SDS011;20935;42.660;23.342;2023-12-20T08:58:34;58.57;;;35.20;;
8048;SDS011;20935;42.660;23.342;2023-12-20T09:01:21;53.20;;;32.90;;
8048;SDS011;20935;42.660;23.342;2023-12-20T09:04:09;60.17;;;34.37;;
8048;SDS011;20935;42.660;23.342;2023-12-20T09:06:59;56.47;;;34.03;;
8048;SDS011;20935;42.660;23.342;2023-12-20T09:09:46;64.60;;;36.60;;
8048;SDS011;20935;42.660;23.342;2023-12-20T09:12:32;61.20;;;36.23;;
8048;SDS011;20935;42.660;23.342;2023-12-20T09:15:19;66.20;;;37.07;;
8048;SDS011;20935;42.660;23.342;2023-12-20T09:18:06;68.37;;;39.57;;
8048;SDS011;20935;42.660;23.342;2023-12-20T09:20:54;70.47;;;37.13;;
8048;SDS011;20935;42.660;23.342;2023-12-20T09:23:41;80.67;;;40.00;;
8048;SDS011;20935;42.660;23.342;2023-12-20T09:26:28;77.63;;;38.83;;
8048;SDS011;20935;42.660;23.342;2023-12-20T09:29:14;68.53;;;38.17;;
8048;SDS011;20935;42.660;23.342;2023-12-20T09:32:03;70.83;;;39.27;;
8048;SDS011;20935;42.660;23.342;2023-12-20T09:34:49;75.53;;;39.73;;
8048;SDS011;20935;42.660;23.342;2023-12-20T09:37:38;79.63;;;40.73;;
8048;SDS011;20935;42.660;23.342;2023-12-20T09:40:26;81.47;;;41.47;;
8048;SDS011;20935;42.660;23.342;2023-12-20T09:43:14;79.93;;;42.10;;
8048;SDS011;20935;42.660;23.342;2023-12-20T09:46:01;85.83;;;41.07;;
8048;SDS011;20935;42.660;23.342;2023-12-20T09:48:50;86.30;;;42.97;;
8048;SDS011;20935;42.660;23.342;2023-12-20T09:51:37;83.10;;;44.37;;
8048;SDS011;20935;42.660;23.342;2023-12-20T09:54:25;76.77;;;41.70;;
8048;SDS011;20935;42.660;23.342;2023-12-20T09:57:12;85.17;;;41.50;;
8048;SDS011;20935;42.660;23.342;2023-12-20T09:59:59;78.40;;;42.60;;
8048;SDS011;20935;42.660;23.342;2023-12-20T10:02:45;85.73;;;42.60;;
8048;SDS011;20935;42.660;23.342;2023-12-20T10:05:34;80.87;;;42.40;;
8048;SDS011;20935;42.660;23.342;2023-12-20T10:08:22;82.20;;;41.97;;
8048;SDS011;20935;42.660;23.342;2023-12-20T10:11:11;88.73;;;42.97;;
8048;SDS011;20935;42.660;23.342;2023-12-20T10:13:58;81.13;;;45.20;;
8048;SDS011;20935;42.660;23.342;2023-12-20T10:16:45;81.23;;;42.10;;
8048;SDS011;20935;42.660;23.342;2023-12-20T10:19:30;81.57;;;42.20;;
8048;SDS011;20935;42.660;23.342;2023-12-20T10:22:16;72.70;;;39.43;;
8048;SDS011;20935;42.660;23.342;2023-12-20T10:25:01;78.03;;;41.90;;
8048;SDS011;20935;42.660;23.342;2023-12-20T10:27:47;83.50;;;44.00;;
8048;SDS011;20935;42.660;23.342;2023-12-20T10:30:32;76.73;;;43.13;;
8048;SDS011;20935;42.660;23.342;2023-12-20T10:33:24;81.63;;;44.17;;
8048;SDS011;20935;42.660;23.342;2023-12-20T10:36:09;73.67;;;42.30;;
8048;SDS011;20935;42.660;23.342;2023-12-20T10:38:57;77.30;;;43.53;;
8048;SDS011;20935;42.660;23.342;2023-12-20T10:41:42;74.03;;;46.03;;
8048;SDS011;20935;42.660;23.342;2023-12-20T10:44:29;73.33;;;43.83;;
8048;SDS011;20935;42.660;23.342;2023-12-20T10:47:18;73.57;;;44.60;;
8048;SDS011;20935;42.660;23.342;2023-12-20T10:50:05;75.17;;;44.13;;
8048;SDS011;20935;42.660;23.342;2023-12-20T10:52:50;80.47;;;44.03;;
8048;SDS011;20935;42.660;23.342;2023-12-20T10:55:39;78.90;;;45.67;;
8048;SDS011;20935;42.660;23.342;2023-12-20T10:58:24;85.60;;;47.00;;
8048;SDS011;20935;42.660;23.342;2023-12-20T11:01:13;80.77;;;45.23;;
8048;SDS011;20935;42.660;23.342;2023-12-20T11:03:58;86.77;;;45.60;;
8048;SDS011;20935;42.660;23.342;2023-12-20T11:06:46;80.67;;;43.10;;
8048;SDS011;20935;42.660;23.342;2023-12-20T11:09:35;95.17;;;47.83;;
8048;SDS011;20935;42.660;23.342;2023-12-20T11:12:32;88.17;;;46.80;;
8048;SDS011;20935;42.660;23.342;2023-12-20T11:15:17;90.60;;;45.53;;
8048;SDS011;20935;42.660;23.342;2023-12-20T11:18:04;83.40;;;45.00;;
8048;SDS011;20935;42.660;23.342;2023-12-20T11:20:50;80.00;;;45.50;;
8048;SDS011;20935;42.660;23.342;2023-12-20T11:23:35;97.97;;;47.47;;
8048;SDS011;20935;42.660;23.342;2023-12-20T11:26:22;81.27;;;45.73;;
8048;SDS011;20935;42.660;23.342;2023-12-20T11:35:19;85.80;;;45.47;;
8048;SDS011;20935;42.660;23.342;2023-12-20T11:38:07;89.57;;;47.20;;
8048;SDS011;20935;42.660;23.342;2023-12-20T11:40:53;79.83;;;45.53;;
8048;SDS011;20935;42.660;23.342;2023-12-20T11:43:38;82.30;;;44.87;;
8048;SDS011;20935;42.660;23.342;2023-12-20T11:46:25;84.33;;;45.80;;
8048;SDS011;20935;42.660;23.342;2023-12-20T11:49:10;85.53;;;45.03;;
8048;SDS011;20935;42.660;23.342;2023-12-20T11:52:00;88.47;;;46.10;;
8048;SDS011;20935;42.660;23.342;2023-12-20T11:54:45;85.80;;;46.73;;
8048;SDS011;20935;42.660;23.342;2023-12-20T11:57:31;82.03;;;44.50;;
8048;SDS011;20935;42.660;23.342;2023-12-20T12:00:17;76.20;;;43.93;;
8048;SDS011;20935;42.660;23.342;2023-12-20T12:03:04;77.90;;;43.50;;
8048;SDS011;20935;42.660;23.342;2023-12-20T12:05:49;83.70;;;45.83;;
8048;SDS011;20935;42.660;23.342;2023-12-20T12:08:39;80.87;;;45.30;;
8048;SDS011;20935;42.660;23.342;2023-12-20T12:11:24;84.90;;;44.70;;
8048;SDS011;20935;42.660;23.342;2023-12-20T12:14:10;86.83;;;47.50;;
8048;SDS011;20935;42.660;23.342;2023-12-20T12:16:55;85.83;;;46.40;;
8048;SDS011;20935;42.660;23.342;2023-12-20T12:19:41;81.13;;;44.80;;
8048;SDS011;20935;42.660;23.342;2023-12-20T12:22:30;77.03;;;44.23;;
8048;SDS011;20935;42.660;23.342;2023-12-20T12:25:25;74.47;;;42.37;;
8048;SDS011;20935;42.660;23.342;2023-12-20T12:28:13;81.47;;;44.17;;
8048;SDS011;20935;42.660;23.342;2023-12-20T12:30:59;78.97;;;42.93;;
8048;SDS011;20935;42.660;23.342;2023-12-20T12:33:44;83.67;;;45.27;;
8048;SDS011;20935;42.660;23.342;2023-12-20T12:36:29;81.20;;;45.17;;
8048;SDS011;20935;42.660;23.342;2023-12-20T12:39:15;74.70;;;42.57;;
8048;SDS011;20935;42.660;23.342;2023-12-20T12:42:01;83.23;;;45.07;;
8048;SDS011;20935;42.660;23.342;2023-12-20T12:44:46;79.87;;;44.53;;
8048;SDS011;20935;42.660;23.342;2023-12-20T12:47:35;84.80;;;46.50;;
8048;SDS011;20935;42.660;23.342;2023-12-20T12:50:20;82.17;;;45.33;;
8048;SDS011;20935;42.660;23.342;2023-12-20T12:53:06;68.13;;;40.50;;
8048;SDS011;20935;42.660;23.342;2023-12-20T12:55:51;78.57;;;43.43;;
8048;SDS011;20935;42.660;23.342;2023-12-20T12:58:38;80.60;;;45.30;;
8048;SDS011;20935;42.660;23.342;2023-12-20T13:01:23;94.87;;;49.10;;
8048;SDS011;20935;42.660;23.342;2023-12-20T13:04:09;89.97;;;46.83;;
8048;SDS011;20935;42.660;23.342;2023-12-20T13:06:56;97.57;;;48.53;;
8048;SDS011;20935;42.660;23.342;2023-12-20T13:09:42;90.83;;;48.77;;
8048;SDS011;20935;42.660;23.342;2023-12-20T13:12:29;98.43;;;47.80;;
8048;SDS011;20935;42.660;23.342;2023-12-20T13:15:17;83.77;;;46.50;;
8048;SDS011;20935;42.660;23.342;2023-12-20T13:18:05;89.83;;;48.50;;
8048;SDS011;20935;42.660;23.342;2023-12-20T13:20:52;97.23;;;51.27;;
8048;SDS011;20935;42.660;23.342;2023-12-20T13:23:39;99.90;;;51.10;;
8048;SDS011;20935;42.660;23.342;2023-12-20T13:26:26;101.77;;;52.93;;
8048;SDS011;20935;42.660;23.342;2023-12-20T13:29:12;106.40;;;49.87;;
8048;SDS011;20935;42.660;23.342;2023-12-20T13:32:01;97.23;;;50.00;;
8048;SDS011;20935;42.660;23.342;2023-12-20T13:34:49;106.47;;;52.27;;
8048;SDS011;20935;42.660;23.342;2023-12-20T13:37:36;112.27;;;49.50;;
8048;SDS011;20935;42.660;23.342;2023-12-20T13:40:22;100.67;;;49.70;;
8048;SDS011;20935;42.660;23.342;2023-12-20T13:43:09;95.13;;;46.47;;
8048;SDS011;20935;42.660;23.342;2023-12-20T13:45:58;96.10;;;47.40;;
8048;SDS011;20935;42.660;23.342;2023-12-20T13:48:46;96.10;;;47.17;;
8048;SDS011;20935;42.660;23.342;2023-12-20T13:51:33;108.37;;;47.73;;
8048;SDS011;20935;42.660;23.342;2023-12-20T13:54:20;96.00;;;48.50;;
8048;SDS011;20935;42.660;23.342;2023-12-20T13:57:07;97.23;;;48.40;;
8048;SDS011;20935;42.660;23.342;2023-12-20T13:59:54;104.23;;;49.00;;
8048;SDS011;20935;42.660;23.342;2023-12-20T14:02:42;92.57;;;46.30;;
8048;SDS011;20935;42.660;23.342;2023-12-20T14:05:30;92.37;;;44.00;;
8048;SDS011;20935;42.660;23.342;2023-12-20T14:08:21;107.70;;;47.97;;
8048;SDS011;20935;42.660;23.342;2023-12-20T14:11:09;96.53;;;46.37;;
8048;SDS011;20935;42.660;23.342;2023-12-20T14:13:57;93.83;;;46.10;;
8048;SDS011;20935;42.660;23.342;2023-12-20T14:16:43;92.67;;;46.53;;
8048;SDS011;20935;42.660;23.342;2023-12-20T14:19:30;97.07;;;48.20;;
8048;SDS011;20935;42.660;23.342;2023-12-20T14:22:19;102.77;;;47.70;;
8048;SDS011;20935;42.660;23.342;2023-12-20T14:25:06;93.43;;;46.40;;
8048;SDS011;20935;42.660;23.342;2023-12-20T14:27:54;102.10;;;50.77;;
8048;SDS011;20935;42.660;23.342;2023-12-20T14:30:44;101.90;;;48.70;;
8048;SDS011;20935;42.660;23.342;2023-12-20T14:33:32;102.37;;;48.73;;
8048;SDS011;20935;42.660;23.342;2023-12-20T14:36:19;98.67;;;47.50;;
8048;SDS011;20935;42.660;23.342;2023-12-20T14:39:07;111.67;;;55.63;;
8048;SDS011;20935;42.660;23.342;2023-12-20T14:41:58;116.57;;;51.50;;
8048;SDS011;20935;42.660;23.342;2023-12-20T14:44:45;110.47;;;53.20;;
8048;SDS011;20935;42.660;23.342;2023-12-20T14:47:31;124.90;;;54.40;;
8048;SDS011;20935;42.660;23.342;2023-12-20T14:50:18;121.60;;;57.57;;
8048;SDS011;20935;42.660;23.342;2023-12-20T14:53:05;122.47;;;53.73;;
8048;SDS011;20935;42.660;23.342;2023-12-20T14:55:53;137.93;;;64.33;;
8048;SDS011;20935;42.660;23.342;2023-12-20T14:58:40;142.83;;;65.73;;
8048;SDS011;20935;42.660;23.342;2023-12-20T15:01:27;127.13;;;62.07;;
8048;SDS011;20935;42.660;23.342;2023-12-20T15:04:14;130.57;;;63.50;;
8048;SDS011;20935;42.660;23.342;2023-12-20T15:07:00;136.20;;;63.27;;
8048;SDS011;20935;42.660;23.342;2023-12-20T15:09:48;131.60;;;61.50;;
8048;SDS011;20935;42.660;23.342;2023-12-20T15:12:36;147.87;;;66.63;;
8048;SDS011;20935;42.660;23.342;2023-12-20T15:15:22;139.10;;;67.03;;
8048;SDS011;20935;42.660;23.342;2023-12-20T15:18:09;140.20;;;63.63;;
8048;SDS011;20935;42.660;23.342;2023-12-20T15:20:56;144.97;;;62.23;;
8048;SDS011;20935;42.660;23.342;2023-12-20T15:23:43;142.90;;;64.73;;
8048;SDS011;20935;42.660;23.342;2023-12-20T15:26:38;130.40;;;64.17;;
8048;SDS011;20935;42.660;23.342;2023-12-20T15:29:26;147.60;;;66.37;;
8048;SDS011;20935;42.660;23.342;2023-12-20T15:32:13;134.93;;;62.00;;
8048;SDS011;20935;42.660;23.342;2023-12-20T15:35:00;140.30;;;64.13;;
8048;SDS011;20935;42.660;23.342;2023-12-20T15:37:48;146.63;;;69.60;;
8048;SDS011;20935;42.660;23.342;2023-12-20T15:40:34;146.97;;;71.57;;
8048;SDS011;20935;42.660;23.342;2023-12-20T15:43:21;142.53;;;67.00;;
8048;SDS011;20935;42.660;23.342;2023-12-20T15:46:10;144.20;;;68.17;;
8048;SDS011;20935;42.660;23.342;2023-12-20T15:48:57;133.73;;;62.90;;
8048;SDS011;20935;42.660;23.342;2023-12-20T15:51:44;140.47;;;68.67;;
8048;SDS011;20935;42.660;23.342;2023-12-20T15:54:31;134.87;;;71.13;;
8048;SDS011;20935;42.660;23.342;2023-12-20T15:57:17;137.77;;;64.93;;
8048;SDS011;20935;42.660;23.342;2023-12-20T16:00:05;126.67;;;61.33;;
8048;SDS011;20935;42.660;23.342;2023-12-20T16:02:53;136.23;;;64.93;;
8048;SDS011;20935;42.660;23.342;2023-12-20T16:05:40;139.17;;;66.83;;
8048;SDS011;20935;42.660;23.342;2023-12-20T16:08:27;137.17;;;68.47;;
8048;SDS011;20935;42.660;23.342;2023-12-20T16:11:13;138.83;;;68.20;;
8048;SDS011;20935;42.660;23.342;2023-12-20T16:14:00;144.57;;;71.70;;
8048;SDS011;20935;42.660;23.342;2023-12-20T16:16:47;136.57;;;64.67;;
8048;SDS011;20935;42.660;23.342;2023-12-20T16:19:36;141.70;;;69.90;;